Fishers, New York
Current Conditions -  °F | °C
As of 10:54 PM on Wednesday 28 Jan 2015 (Local Time) from KROC Reporting Station
Clear Clear  
Wind Chill:   Ceiling: Unl
Heat Index:   Visibility: 10mi
Dew Point:   Wind: 3mph
Humidity: 80%   Direction: 230°SW
Pressure: 30.3"   Gusts: NA
Location:  43.01°N, 77.46°W
Report Text: KROC 290354Z 23003KT 10SM CLR M15/M18 A3030 RMK AO2 SLP276 T11501178
Loading
Personal Weather Stations






























Interactive Weather Map New forecast layout! Learn more

10-Day Weather Forecast

Advertisements
Track Severe Weather on mobile